Time;durP1;ratioP1;P1;durP2;ratioP2;P2;SDS_P1;SDS_P2;PMS_P1;PMS_P2;Temp;Humidity;BMP_temperature;BMP_pressure;BME280_temperature;BME280_humidity;BME280_pressure;Samples;Min_cycle;Max_cycle;Signal;HPM_P1;HPM_P2
2022/11/01 00:01:44;;;;;;;8.95;4.50;;;19.90;67.30;;;;;;6229982;23;20020;-75
2022/11/01 00:04:10;;;;;;;10.07;4.68;;;19.90;67.20;;;;;;6228915;23;20016;-76
2022/11/01 00:06:36;;;;;;;8.05;4.03;;;19.90;67.20;;;;;;6202854;23;20102;-75
2022/11/01 00:09:03;;;;;;;9.45;4.45;;;19.90;67.20;;;;;;6231640;23;20079;-74
2022/11/01 00:11:28;;;;;;;9.93;4.47;;;19.90;67.10;;;;;;6177991;23;20089;-72
2022/11/01 00:13:54;;;;;;;8.05;4.28;;;19.90;67.10;;;;;;6230282;23;20692;-74
2022/11/01 00:16:20;;;;;;;9.55;4.50;;;19.80;67.10;;;;;;6179109;23;20360;-76
2022/11/01 00:18:46;;;;;;;8.85;4.40;;;19.80;67.10;;;;;;6230245;23;20012;-73
2022/11/01 00:21:13;;;;;;;9.00;4.53;;;19.80;66.90;;;;;;6202962;23;20031;-74
2022/11/01 00:23:38;;;;;;;12.25;4.55;;;19.90;67.00;;;;;;6229923;23;20020;-76
2022/11/01 00:26:05;;;;;;;9.65;4.43;;;19.80;66.90;;;;;;6204772;23;20056;-75
2022/11/01 00:28:32;;;;;;;8.45;4.47;;;19.80;66.90;;;;;;6228819;23;20027;-73
2022/11/01 00:30:58;;;;;;;10.00;4.25;;;19.80;66.90;;;;;;6204870;23;20453;-74
2022/11/01 00:33:24;;;;;;;8.05;4.00;;;19.80;66.80;;;;;;6199883;23;20016;-74
2022/11/01 00:35:50;;;;;;;7.57;4.03;;;19.80;66.80;;;;;;6227594;23;20016;-77
2022/11/01 00:38:17;;;;;;;9.55;4.40;;;19.90;66.80;;;;;;6203121;23;20023;-74
2022/11/01 00:40:43;;;;;;;7.32;4.57;;;19.90;66.80;;;;;;6198644;23;20034;-75
2022/11/01 00:43:10;;;;;;;9.20;4.32;;;19.80;66.70;;;;;;6228287;23;20027;-73
2022/11/01 00:45:35;;;;;;;7.15;4.28;;;19.80;66.70;;;;;;6226668;23;20073;-74
2022/11/01 00:48:01;;;;;;;7.45;4.30;;;19.80;67.50;;;;;;6200601;23;20024;-75
2022/11/01 00:50:26;;;;;;;7.47;4.60;;;19.80;66.70;;;;;;6202769;23;20016;-74
2022/11/01 00:52:52;;;;;;;9.13;3.95;;;19.80;66.60;;;;;;6227659;23;20020;-75
2022/11/01 00:55:18;;;;;;;7.88;4.20;;;19.80;66.60;;;;;;6201405;23;20020;-75
2022/11/01 00:57:44;;;;;;;7.20;3.90;;;19.80;66.60;;;;;;6228326;23;20024;-74
2022/11/01 01:00:10;;;;;;;7.30;4.25;;;19.80;66.60;;;;;;6227949;23;20103;-73
2022/11/01 01:02:36;;;;;;;6.93;4.32;;;19.80;66.50;;;;;;6201193;23;20051;-78
2022/11/01 01:05:03;;;;;;;8.32;4.38;;;19.80;66.60;;;;;;6227656;23;20528;-74
2022/11/01 01:07:29;;;;;;;7.07;4.15;;;19.80;66.40;;;;;;6202909;23;20070;-74
2022/11/01 01:09:54;;;;;;;8.27;4.18;;;19.80;66.50;;;;;;6229678;23;20020;-78
2022/11/01 01:12:20;;;;;;;7.20;4.18;;;19.80;66.50;;;;;;6229725;23;20012;-73
2022/11/01 01:14:46;;;;;;;8.57;5.07;;;19.80;66.40;;;;;;6202254;23;20023;-74
2022/11/01 01:17:12;;;;;;;8.93;4.60;;;19.80;66.40;;;;;;6201736;23;20056;-73
2022/11/01 01:19:37;;;;;;;9.63;4.40;;;19.80;66.40;;;;;;6230081;23;20028;-73
2022/11/01 01:22:03;;;;;;;10.13;4.20;;;19.80;66.30;;;;;;6229840;23;20145;-73
2022/11/01 01:24:28;;;;;;;7.28;3.97;;;19.80;66.40;;;;;;6200423;23;20399;-73
2022/11/01 01:26:54;;;;;;;7.13;4.13;;;19.80;66.40;;;;;;6179424;23;20352;-73
2022/11/01 01:29:19;;;;;;;8.27;4.68;;;19.80;66.30;;;;;;6202962;23;20020;-73
2022/11/01 01:31:45;;;;;;;8.52;4.13;;;19.80;66.30;;;;;;6229546;23;20016;-75
2022/11/01 01:34:11;;;;;;;7.95;4.10;;;19.80;66.30;;;;;;6201812;23;20028;-75
2022/11/01 01:36:36;;;;;;;7.95;4.50;;;19.80;66.30;;;;;;6230078;23;20024;-74
2022/11/01 01:39:02;;;;;;;7.90;4.20;;;19.80;66.30;;;;;;6204251;23;20357;-75
2022/11/01 01:44:49;;;;;;;6.90;3.88;;;19.80;66.30;;;;;;6203898;23;20099;-75
2022/11/01 01:47:27;;;;;;;6.95;4.10;;;19.80;66.20;;;;;;6201439;23;20095;-74
2022/11/01 01:50:04;;;;;;;6.72;4.15;;;19.80;66.20;;;;;;6230206;23;20022;-75
2022/11/01 01:52:35;;;;;;;8.07;4.00;;;19.80;66.10;;;;;;6205439;23;20016;-74
2022/11/01 01:55:05;;;;;;;8.55;4.28;;;19.80;66.10;;;;;;6228655;23;20078;-74
2022/11/01 01:57:31;;;;;;;9.48;4.45;;;19.80;66.10;;;;;;6203038;23;20130;-73
2022/11/01 01:59:57;;;;;;;9.30;4.45;;;19.80;66.10;;;;;;6229174;23;20504;-72
2022/11/01 02:02:23;;;;;;;8.00;4.03;;;19.80;66.10;;;;;;6178130;23;20091;-73
2022/11/01 02:05:02;;;;;;;6.97;4.13;;;19.80;66.10;;;;;;6230002;23;20138;-74
2022/11/01 02:07:27;;;;;;;6.38;3.80;;;19.80;66.00;;;;;;6204215;23;20024;-75
2022/11/01 02:09:55;;;;;;;7.47;4.10;;;19.80;66.00;;;;;;6232806;23;20020;-72
2022/11/01 02:12:25;;;;;;;7.05;4.20;;;19.80;66.00;;;;;;6204362;23;20357;-73
2022/11/01 02:14:50;;;;;;;7.95;4.32;;;19.80;66.00;;;;;;6229609;23;20024;-73
2022/11/01 02:17:48;;;;;;;7.18;4.13;;;19.80;66.00;;;;;;6231771;23;20020;-76
2022/11/01 02:20:33;;;;;;;;;;;19.80;65.90;;;;;;6232559;23;20028;-77
2022/11/01 02:23:42;;;;;;;5.25;4.05;;;19.80;66.00;;;;;;6206113;23;20383;-74
2022/11/01 02:26:20;;;;;;;7.50;3.90;;;19.80;66.00;;;;;;6203330;23;20060;-73
2022/11/01 02:28:51;;;;;;;7.35;4.43;;;19.80;65.90;;;;;;6231281;23;20559;-74
2022/11/01 02:31:25;;;;;;;8.18;4.13;;;19.80;65.90;;;;;;6231907;23;20343;-75
2022/11/01 02:33:59;;;;;;;6.90;4.03;;;19.80;65.90;;;;;;6201542;23;20846;-74
2022/11/01 02:36:38;;;;;;;6.32;3.92;;;19.80;65.90;;;;;;6231333;23;20508;-75
2022/11/01 02:39:13;;;;;;;7.63;4.03;;;19.80;65.90;;;;;;6204147;23;20031;-74
2022/11/01 02:41:46;;;;;;;6.25;3.55;;;19.80;65.90;;;;;;6206491;23;20024;-74
2022/11/01 02:44:18;;;;;;;7.97;4.28;;;19.80;65.90;;;;;;6179233;23;20020;-73
2022/11/01 02:47:01;;;;;;;6.55;4.00;;;19.80;65.90;;;;;;6231772;23;20016;-73
2022/11/01 02:49:32;;;;;;;5.75;4.07;;;19.80;65.90;;;;;;6204357;23;20582;-73
2022/11/01 02:52:00;;;;;;;5.88;3.83;;;19.80;65.80;;;;;;6230807;23;20016;-76
2022/11/01 02:54:41;;;;;;;6.68;3.80;;;19.80;65.80;;;;;;6232033;23;20023;-75
2022/11/01 02:57:25;;;;;;;6.88;3.78;;;19.70;65.80;;;;;;6229691;23;20020;-75
2022/11/01 02:59:50;;;;;;;9.68;3.90;;;19.80;65.70;;;;;;6230667;23;20483;-75
2022/11/01 03:02:38;;;;;;;6.78;3.85;;;19.80;65.70;;;;;;6206071;23;20028;-75
2022/11/01 03:05:06;;;;;;;6.95;3.80;;;19.80;65.70;;;;;;6230445;23;20475;-76
2022/11/01 03:07:32;;;;;;;5.47;3.83;;;19.80;65.70;;;;;;6231108;23;20016;-74
2022/11/01 03:09:58;;;;;;;6.10;4.05;;;19.80;65.80;;;;;;6229782;23;20336;-74
2022/11/01 03:12:27;;;;;;;10.43;3.92;;;19.80;65.70;;;;;;6205791;23;20523;-73
2022/11/01 03:15:06;;;;;;;9.52;3.90;;;19.80;65.70;;;;;;6229085;23;20027;-75
2022/11/01 03:17:31;;;;;;;;;;;19.80;65.60;;;;;;6177851;23;20468;-74
2022/11/01 03:20:20;;;;;;;8.88;3.75;;;19.80;65.70;;;;;;6231075;23;20021;-74
2022/11/01 03:22:51;;;;;;;8.30;3.85;;;19.80;65.60;;;;;;6203474;23;20027;-74
2022/11/01 03:25:38;;;;;;;5.63;3.50;;;19.80;65.70;;;;;;6204545;23;20074;-73
2022/11/01 03:28:39;;;;;;;6.63;4.03;;;19.70;65.60;;;;;;6229905;23;20020;-74
2022/11/01 03:31:10;;;;;;;5.47;3.47;;;19.80;65.60;;;;;;6202575;23;20090;-73
2022/11/01 03:33:43;;;;;;;8.55;3.60;;;19.80;65.60;;;;;;6200190;23;20024;-73
2022/11/01 03:36:13;;;;;;;6.10;3.80;;;19.80;65.50;;;;;;6227584;23;20016;-73
2022/11/01 03:38:42;;;;;;;7.30;4.22;;;19.80;65.60;;;;;;6201621;23;20013;-73
2022/11/01 03:41:12;;;;;;;7.00;3.95;;;19.80;65.50;;;;;;6229755;23;20062;-74
2022/11/01 03:43:40;;;;;;;7.15;3.80;;;19.80;65.50;;;;;;6228369;23;20027;-74
2022/11/01 03:46:06;;;;;;;4.97;3.63;;;19.80;65.50;;;;;;6230077;23;20015;-74
2022/11/01 03:48:32;;;;;;;5.22;3.33;;;19.80;65.50;;;;;;6228684;23;20322;-74
2022/11/01 03:50:58;;;;;;;8.55;3.95;;;19.80;65.50;;;;;;6231506;23;20024;-74
2022/11/01 03:53:24;;;;;;;8.80;3.30;;;19.80;65.50;;;;;;6178087;23;20077;-74
2022/11/01 03:55:49;;;;;;;6.43;3.35;;;19.80;65.40;;;;;;6229468;23;20198;-74
2022/11/01 03:58:15;;;;;;;5.68;3.55;;;19.80;65.50;;;;;;6203052;23;20118;-74
2022/11/01 04:00:43;;;;;;;5.50;3.60;;;19.80;65.40;;;;;;6230997;23;20453;-73
2022/11/01 04:03:10;;;;;;;6.25;3.53;;;19.80;65.40;;;;;;6231581;23;20020;-74
2022/11/01 04:05:37;;;;;;;7.70;3.92;;;19.80;65.40;;;;;;6227807;23;20016;-76
2022/11/01 04:08:04;;;;;;;8.73;3.35;;;19.80;65.30;;;;;;6231976;23;20105;-73
2022/11/01 04:10:30;;;;;;;7.68;3.42;;;19.80;65.30;;;;;;6202462;23;20020;-74
2022/11/01 04:12:56;;;;;;;6.68;3.50;;;19.80;65.30;;;;;;6232243;23;20111;-75
2022/11/01 04:21:13;;;;;;;6.35;3.95;;;19.80;65.40;;;;;;6205431;23;20020;-73
2022/11/01 04:23:40;;;;;;;6.32;3.67;;;19.80;65.20;;;;;;6201837;23;20153;-74
2022/11/01 04:26:09;;;;;;;7.00;3.67;;;19.80;65.30;;;;;;6201057;23;20741;-73
2022/11/01 04:28:34;;;;;;;6.40;3.58;;;19.80;65.20;;;;;;6201792;23;20520;-73
2022/11/01 04:31:00;;;;;;;6.63;3.90;;;19.80;65.20;;;;;;6229647;23;20101;-73
2022/11/01 04:33:25;;;;;;;6.50;3.78;;;19.80;65.20;;;;;;6231666;23;20028;-73
2022/11/01 04:35:51;;;;;;;6.32;3.78;;;19.80;65.20;;;;;;6198491;23;20532;-75
2022/11/01 04:38:16;;;;;;;4.80;3.50;;;19.80;65.20;;;;;;6203466;23;20016;-73
2022/11/01 04:40:42;;;;;;;4.68;3.60;;;19.80;65.20;;;;;;6230175;23;20086;-74
2022/11/01 04:43:09;;;;;;;6.32;3.95;;;19.80;65.10;;;;;;6230856;23;20024;-73
2022/11/01 04:45:34;;;;;;;4.88;3.05;;;19.80;65.10;;;;;;6202774;23;20020;-73
2022/11/01 04:48:05;;;;;;;6.47;3.70;;;19.80;65.10;;;;;;6228135;23;20023;-75
2022/11/01 04:50:32;;;;;;;7.45;3.72;;;19.80;65.10;;;;;;6203798;23;20031;-73
2022/11/01 04:52:58;;;;;;;4.55;3.35;;;19.80;65.10;;;;;;6177653;23;20039;-73
2022/11/01 04:55:25;;;;;;;6.68;3.25;;;19.80;65.20;;;;;;6230557;23;20023;-74
2022/11/01 04:57:51;;;;;;;8.25;3.67;;;19.80;65.20;;;;;;6202666;23;20027;-72
2022/11/01 05:00:17;;;;;;;5.05;3.42;;;19.80;65.10;;;;;;6230183;23;20024;-77
2022/11/01 05:02:42;;;;;;;5.18;3.20;;;19.80;65.10;;;;;;6230521;23;20022;-77
2022/11/01 05:05:09;;;;;;;5.50;4.05;;;19.80;65.20;;;;;;6202740;23;20024;-73
2022/11/01 05:07:35;;;;;;;6.32;3.20;;;19.80;65.20;;;;;;6229133;23;20039;-74
2022/11/01 05:10:01;;;;;;;7.43;3.70;;;19.80;65.10;;;;;;6229373;23;20567;-74
2022/11/01 05:12:27;;;;;;;5.47;3.40;;;19.80;65.10;;;;;;6204388;23;20033;-72
2022/11/01 05:14:53;;;;;;;4.28;3.03;;;19.80;65.20;;;;;;6200635;23;20790;-74
2022/11/01 05:17:18;;;;;;;9.80;3.80;;;19.80;65.20;;;;;;6232635;23;20020;-74
2022/11/01 05:19:44;;;;;;;7.05;3.33;;;19.80;65.20;;;;;;6198863;23;20074;-77
2022/11/01 05:22:10;;;;;;;5.20;3.40;;;19.70;65.10;;;;;;6231261;23;20012;-73
2022/11/01 05:24:35;;;;;;;5.35;3.60;;;19.80;65.20;;;;;;6228223;23;20022;-75
2022/11/01 05:27:01;;;;;;;5.43;3.30;;;19.80;65.20;;;;;;6200504;23;20023;-74
2022/11/01 05:29:27;;;;;;;5.28;3.25;;;19.80;65.20;;;;;;6230604;23;20038;-73
2022/11/01 05:31:53;;;;;;;5.60;3.20;;;19.80;65.20;;;;;;6227898;23;20020;-77
2022/11/01 05:34:19;;;;;;;5.82;3.20;;;19.80;65.20;;;;;;6230218;23;20020;-74
2022/11/01 05:36:44;;;;;;;7.10;3.45;;;19.80;65.20;;;;;;6228433;23;20186;-74
2022/11/01 05:39:10;;;;;;;7.03;2.95;;;19.80;66.00;;;;;;6203551;23;20027;-73
2022/11/01 05:41:35;;;;;;;8.07;3.30;;;19.80;65.20;;;;;;6202676;23;20063;-74
2022/11/01 05:44:01;;;;;;;6.07;3.35;;;19.80;65.20;;;;;;6227265;23;20629;-73
2022/11/01 05:46:27;;;;;;;6.45;3.60;;;19.80;65.20;;;;;;6203262;23;20491;-74
2022/11/01 05:48:53;;;;;;;6.57;3.28;;;19.80;65.20;;;;;;6200819;23;20257;-75
2022/11/01 05:51:19;;;;;;;5.47;3.25;;;19.80;65.30;;;;;;6202439;23;20070;-73
2022/11/01 05:53:46;;;;;;;4.68;3.22;;;19.80;65.20;;;;;;6201468;23;20035;-73
2022/11/01 05:56:12;;;;;;;5.55;2.90;;;19.80;65.30;;;;;;6203145;23;20016;-74
2022/11/01 05:58:37;;;;;;;6.82;3.10;;;19.80;65.30;;;;;;6228738;23;20075;-73
2022/11/01 06:01:04;;;;;;;5.28;3.50;;;19.80;65.30;;;;;;6204197;23;20344;-76
2022/11/01 06:03:31;;;;;;;4.80;3.38;;;19.80;65.30;;;;;;6228425;23;20391;-74
2022/11/01 06:05:57;;;;;;;5.72;3.20;;;19.80;65.30;;;;;;6201450;23;20024;-74
2022/11/01 06:08:23;;;;;;;6.50;3.25;;;19.80;65.30;;;;;;6203191;23;20052;-75
2022/11/01 06:10:49;;;;;;;6.00;3.58;;;19.80;65.30;;;;;;6200034;23;20067;-72
2022/11/01 06:13:14;;;;;;;6.70;3.00;;;19.80;65.30;;;;;;6230783;23;20338;-73
2022/11/01 06:15:40;;;;;;;6.05;2.97;;;19.80;65.30;;;;;;6226882;23;20457;-74
2022/11/01 06:18:07;;;;;;;8.48;2.92;;;19.80;65.30;;;;;;6227890;23;20534;-75
2022/11/01 06:20:33;;;;;;;6.65;3.30;;;19.80;65.30;;;;;;6228046;23;20087;-73
2022/11/01 06:22:59;;;;;;;6.18;3.10;;;19.80;65.30;;;;;;6175889;23;20085;-72
2022/11/01 06:25:26;;;;;;;4.30;2.80;;;19.80;65.30;;;;;;6203146;23;20021;-73
2022/11/01 06:27:55;;;;;;;5.03;2.92;;;19.80;65.30;;;;;;6225391;23;20027;-73
2022/11/01 06:30:20;;;;;;;5.55;2.65;;;19.80;65.30;;;;;;6203995;23;20025;-72
2022/11/01 06:32:46;;;;;;;6.78;2.80;;;19.80;65.30;;;;;;6200677;23;20038;-74
2022/11/01 06:35:12;;;;;;;6.80;2.90;;;19.80;65.30;;;;;;6231324;23;20073;-75
2022/11/01 06:37:38;;;;;;;5.43;3.35;;;19.80;65.40;;;;;;6231058;23;20078;-74
2022/11/01 06:40:05;;;;;;;4.82;3.00;;;19.80;65.50;;;;;;6203285;23;20386;-75
2022/11/01 06:42:31;;;;;;;6.10;3.28;;;19.80;65.60;;;;;;6205642;23;20385;-76
2022/11/01 06:44:57;;;;;;;7.47;3.45;;;19.80;65.70;;;;;;6201885;23;20062;-75
2022/11/01 06:47:22;;;;;;;6.60;3.53;;;19.80;65.80;;;;;;6232355;23;20105;-73
2022/11/01 06:49:48;;;;;;;10.07;3.30;;;19.80;66.00;;;;;;6229507;23;20522;-73
2022/11/01 06:52:13;;;;;;;4.35;2.70;;;19.80;65.90;;;;;;6230955;23;20023;-76
2022/11/01 06:54:39;;;;;;;9.02;3.10;;;19.80;66.70;;;;;;6205277;23;20456;-73
2022/11/01 06:57:04;;;;;;;8.85;2.83;;;19.80;66.00;;;;;;6233916;23;20790;-74
2022/11/01 06:59:30;;;;;;;4.50;3.17;;;19.80;66.10;;;;;;6231440;23;20019;-72
2022/11/01 07:01:55;;;;;;;6.93;3.10;;;19.80;66.00;;;;;;6232536;23;20008;-74
2022/11/01 07:04:22;;;;;;;8.27;3.28;;;19.80;66.00;;;;;;6203655;23;20030;-70
2022/11/01 07:06:48;;;;;;;5.18;3.10;;;19.80;66.10;;;;;;6232274;23;20024;-74
2022/11/01 07:09:13;;;;;;;12.75;3.35;;;19.80;66.00;;;;;;6207636;23;20383;-73
2022/11/01 07:11:39;;;;;;;6.10;3.20;;;19.90;66.00;;;;;;6231199;23;20082;-74
2022/11/01 07:14:05;;;;;;;3.88;2.85;;;19.90;66.00;;;;;;6235506;23;20012;-74
2022/11/01 07:16:31;;;;;;;5.25;2.85;;;19.90;65.90;;;;;;6205659;23;20028;-74
2022/11/01 07:18:57;;;;;;;6.65;2.80;;;19.90;65.90;;;;;;6231846;23;20050;-73
2022/11/01 07:21:23;;;;;;;5.50;2.75;;;19.80;65.90;;;;;;6207507;23;20043;-75
2022/11/01 07:23:49;;;;;;;5.80;2.72;;;19.90;65.80;;;;;;6204501;23;20016;-75
2022/11/01 07:26:14;;;;;;;4.45;2.60;;;19.80;65.70;;;;;;6207737;23;20389;-73
2022/11/01 07:28:40;;;;;;;6.70;2.67;;;19.80;65.60;;;;;;6200200;23;20024;-76
2022/11/01 07:31:06;;;;;;;8.40;2.60;;;19.80;65.60;;;;;;6207941;23;20464;-75
2022/11/01 07:33:32;;;;;;;5.55;2.78;;;19.90;65.50;;;;;;6204816;23;20020;-74
2022/11/01 07:35:59;;;;;;;6.65;2.30;;;20.10;65.20;;;;;;6232019;23;20043;-74
2022/11/01 07:38:25;;;;;;;5.70;2.80;;;20.30;64.60;;;;;;6207560;23;20023;-75
2022/11/01 07:40:52;;;;;;;8.05;2.75;;;20.50;64.30;;;;;;6205183;23;20020;-75
2022/11/01 07:43:18;;;;;;;6.38;2.63;;;20.50;64.00;;;;;;6206682;23;20012;-75
2022/11/01 07:45:44;;;;;;;6.53;2.50;;;20.40;63.90;;;;;;6230832;23;20013;-73
2022/11/01 07:48:12;;;;;;;4.75;2.55;;;20.40;64.00;;;;;;6204880;23;20016;-75
2022/11/01 07:50:39;;;;;;;5.07;2.60;;;20.40;64.00;;;;;;6205273;23;20395;-74
2022/11/01 07:53:16;;;;;;;4.83;2.37;;;20.40;64.00;;;;;;6206103;23;20097;-73
2022/11/01 07:55:44;;;;;;;6.45;2.40;;;20.40;64.10;;;;;;6204432;23;20251;-73
2022/11/01 07:58:11;;;;;;;4.25;2.08;;;20.30;64.10;;;;;;6207731;23;20466;-73
2022/11/01 08:00:38;;;;;;;4.93;2.58;;;20.30;64.20;;;;;;6205804;23;20606;-73
2022/11/01 08:03:07;;;;;;;6.70;2.60;;;20.30;64.30;;;;;;6232005;23;20012;-75
2022/11/01 08:05:34;;;;;;;4.15;2.05;;;20.30;64.40;;;;;;6180309;23;20024;-73
2022/11/01 08:08:00;;;;;;;4.70;2.15;;;20.20;64.30;;;;;;6230481;23;20343;-74
2022/11/01 08:10:27;;;;;;;4.43;2.00;;;20.20;64.30;;;;;;6207855;23;20024;-73
2022/11/01 08:13:02;;;;;;;2.97;1.83;;;20.20;64.20;;;;;;6232896;23;20388;-74
2022/11/01 08:15:28;;;;;;;3.38;2.10;;;20.30;64.20;;;;;;6181276;23;20135;-74
2022/11/01 08:17:56;;;;;;;3.78;2.17;;;20.30;64.10;;;;;;6205636;23;20020;-73
2022/11/01 08:20:22;;;;;;;5.60;2.08;;;20.30;64.00;;;;;;6204476;23;20012;-74
2022/11/01 08:22:47;;;;;;;5.53;2.10;;;20.30;64.00;;;;;;6233811;23;20093;-74
2022/11/01 08:25:13;;;;;;;4.88;1.67;;;20.40;64.00;;;;;;6231334;23;20030;-73
2022/11/01 08:27:38;;;;;;;4.70;1.88;;;20.40;63.90;;;;;;6205741;23;20044;-73
2022/11/01 08:30:04;;;;;;;7.32;2.05;;;20.40;63.80;;;;;;6232780;23;20443;-73
2022/11/01 08:32:30;;;;;;;6.53;2.10;;;20.40;63.80;;;;;;6234011;23;20030;-73
2022/11/01 08:34:55;;;;;;;3.28;1.85;;;20.40;63.80;;;;;;6232411;23;20024;-74
2022/11/01 08:37:21;;;;;;;5.18;1.98;;;20.40;63.70;;;;;;6205520;23;20016;-74
2022/11/01 08:39:47;;;;;;;4.20;1.95;;;20.40;63.60;;;;;;6232045;23;20171;-74
2022/11/01 08:42:12;;;;;;;4.30;1.90;;;20.50;63.70;;;;;;6232397;23;20488;-75
2022/11/01 08:44:38;;;;;;;6.43;1.80;;;20.50;63.60;;;;;;6229826;23;20062;-73
2022/11/01 08:47:03;;;;;;;8.13;1.98;;;20.50;63.60;;;;;;6207046;23;20170;-74
2022/11/01 08:49:29;;;;;;;7.72;2.17;;;20.40;63.50;;;;;;6232214;23;20059;-77
2022/11/01 08:51:55;;;;;;;4.57;2.42;;;20.40;63.60;;;;;;6204148;23;20027;-74
2022/11/01 08:54:20;;;;;;;6.70;1.92;;;20.40;63.50;;;;;;6207041;23;20115;-72
2022/11/01 08:56:46;;;;;;;5.30;2.00;;;20.40;63.40;;;;;;6231819;23;20066;-76
2022/11/01 08:59:11;;;;;;;4.68;1.70;;;20.40;63.20;;;;;;6181091;23;20452;-75
2022/11/01 09:01:37;;;;;;;5.40;1.60;;;20.40;63.10;;;;;;6204821;23;20030;-72
2022/11/01 09:04:03;;;;;;;7.05;1.88;;;20.30;62.80;;;;;;6230445;23;20020;-71
2022/11/01 09:06:29;;;;;;;8.07;2.00;;;20.30;62.70;;;;;;6206860;23;20027;-71
2022/11/01 09:08:55;;;;;;;6.30;1.73;;;20.30;62.60;;;;;;6176493;23;20020;-69
2022/11/01 09:11:22;;;;;;;14.55;2.33;;;20.30;62.30;;;;;;6233263;23;20020;-72
2022/11/01 09:13:49;;;;;;;8.88;1.80;;;20.30;61.70;;;;;;6204570;23;20027;-75
2022/11/01 09:16:15;;;;;;;10.45;1.88;;;20.30;61.10;;;;;;6230699;23;20410;-79
2022/11/01 09:18:41;;;;;;;9.82;2.00;;;20.30;60.60;;;;;;6231586;23;20077;-75
2022/11/01 09:21:07;;;;;;;19.33;2.33;;;20.30;60.50;;;;;;6204532;23;20016;-77
2022/11/01 09:23:34;;;;;;;13.15;2.47;;;20.30;60.20;;;;;;6206820;23;20020;-77
2022/11/01 09:26:09;;;;;;;14.02;1.95;;;20.30;59.90;;;;;;6204172;23;20048;-78
2022/11/01 09:28:37;;;;;;;16.70;2.40;;;20.30;59.50;;;;;;6204924;23;20468;-76
2022/11/01 09:31:06;;;;;;;13.57;1.83;;;20.30;59.20;;;;;;6234230;23;20055;-75
2022/11/01 09:33:32;;;;;;;12.88;1.92;;;20.20;58.90;;;;;;6203576;23;20039;-76
2022/11/01 09:35:58;;;;;;;11.63;2.20;;;20.20;58.70;;;;;;6230846;23;20040;-77
2022/11/01 09:38:23;;;;;;;12.20;1.70;;;20.20;58.40;;;;;;6231644;23;20046;-73
2022/11/01 09:41:03;;;;;;;13.48;2.00;;;20.20;58.20;;;;;;6205373;23;20343;-73
2022/11/01 09:43:33;;;;;;;11.55;2.28;;;20.20;57.70;;;;;;6205591;23;20012;-74
2022/11/01 09:46:03;;;;;;;12.88;2.13;;;20.30;57.70;;;;;;6178987;23;20024;-74
2022/11/01 09:48:31;;;;;;;13.55;1.95;;;20.30;57.50;;;;;;6205303;23;20027;-75
2022/11/01 09:51:03;;;;;;;10.27;2.13;;;20.30;57.30;;;;;;6229851;23;20467;-75
2022/11/01 09:53:29;;;;;;;12.73;2.17;;;20.30;57.20;;;;;;6232163;23;20021;-73
2022/11/01 09:56:12;;;;;;;14.70;2.53;;;20.30;57.20;;;;;;6231336;23;20031;-73
2022/11/01 09:59:02;;;;;;;10.77;2.30;;;20.30;56.60;;;;;;6203256;23;20020;-72
2022/11/01 10:01:38;;;;;;;16.77;2.20;;;20.30;56.70;;;;;;6205805;23;20020;-74
2022/11/01 10:04:32;;;;;;;10.07;2.28;;;20.30;56.70;;;;;;6203312;23;20020;-73
2022/11/01 10:07:04;;;;;;;10.20;2.13;;;20.20;55.90;;;;;;6203430;23;20514;-75
2022/11/01 10:09:50;;;;;;;14.23;1.95;;;20.20;56.50;;;;;;6231824;23;20448;-69
2022/11/01 10:12:25;;;;;;;17.65;3.10;;;20.20;55.90;;;;;;6234741;23;20081;-71
2022/11/01 10:14:56;;;;;;;15.85;2.53;;;20.20;55.70;;;;;;6207364;23;20399;-73
2022/11/01 10:17:48;;;;;;;19.20;2.15;;;20.20;55.70;;;;;;6205870;23;20016;-73
2022/11/01 10:20:14;;;;;;;10.90;2.25;;;20.20;55.90;;;;;;6208089;23;20028;-73
2022/11/01 10:22:46;;;;;;;11.93;1.83;;;20.20;56.00;;;;;;6206477;23;20020;-73
2022/11/01 10:25:23;;;;;;;9.00;1.80;;;20.20;56.10;;;;;;6205213;23;20092;-76
2022/11/01 10:27:55;;;;;;;15.53;2.13;;;20.20;55.70;;;;;;6207958;23;20024;-72
2022/11/01 10:30:21;;;;;;;16.02;2.42;;;20.20;56.00;;;;;;6206084;23;20024;-74
2022/11/01 10:33:01;;;;;;;11.48;2.10;;;20.20;56.30;;;;;;6233596;23;20039;-72
2022/11/01 10:35:29;;;;;;;14.13;2.47;;;20.20;56.20;;;;;;6203437;23;20020;-74
2022/11/01 10:38:22;;;;;;;15.48;2.70;;;20.20;55.90;;;;;;6207217;23;20361;-76
2022/11/01 10:40:55;;;;;;;11.75;1.98;;;20.30;56.00;;;;;;6206369;23;20055;-72
2022/11/01 10:43:24;;;;;;;11.60;2.05;;;20.20;55.90;;;;;;6204579;23;20083;-73
2022/11/01 10:45:51;;;;;;;;;;;20.20;56.00;;;;;;6234087;23;20028;-74
2022/11/01 10:48:36;;;;;;;12.55;2.28;;;20.20;55.70;;;;;;6203602;23;19919;-74
2022/11/01 10:51:05;;;;;;;10.90;1.92;;;20.20;55.60;;;;;;6183311;23;20051;-71
2022/11/01 10:53:44;;;;;;;9.57;2.00;;;20.20;55.50;;;;;;6234564;23;20499;-73
2022/11/01 10:56:16;;;;;;;13.35;2.22;;;20.20;55.30;;;;;;6206323;23;20457;-72
2022/11/01 10:58:57;;;;;;;8.55;2.03;;;20.30;55.40;;;;;;6233711;23;20061;-73
2022/11/01 11:01:25;;;;;;;11.45;1.83;;;20.30;55.30;;;;;;6204730;23;20019;-74
2022/11/01 11:03:52;;;;;;;10.15;2.08;;;20.20;55.40;;;;;;6232785;23;20031;-72
2022/11/01 11:06:18;;;;;;;11.98;2.20;;;20.30;55.40;;;;;;6233186;23;20023;-72
2022/11/01 11:08:50;;;;;;;15.82;2.13;;;20.30;55.40;;;;;;6231417;23;20031;-75
2022/11/01 11:11:17;;;;;;;8.13;1.98;;;20.30;55.40;;;;;;6235209;23;20016;-76
2022/11/01 11:13:50;;;;;;;12.93;2.42;;;20.30;55.50;;;;;;6203898;23;20016;-75
2022/11/01 11:16:54;;;;;;;12.45;1.90;;;20.30;55.60;;;;;;6236491;23;20024;-77
2022/11/01 11:19:29;;;;;;;12.40;2.10;;;20.30;55.80;;;;;;6225408;22;20020;-77
2022/11/01 11:21:56;;;;;;;13.15;1.88;;;20.30;56.10;;;;;;6182358;23;20020;-76
2022/11/01 11:24:25;;;;;;;12.10;2.15;;;20.30;56.10;;;;;;6208120;23;20020;-79
2022/11/01 11:26:54;;;;;;;9.77;1.80;;;20.30;56.10;;;;;;6206150;23;20012;-81
2022/11/01 11:29:47;;;;;;;9.80;1.60;;;20.20;56.10;;;;;;6184231;23;20082;-80
2022/11/01 11:32:22;;;;;;;9.27;2.00;;;20.30;56.30;;;;;;6181791;23;20027;-80
2022/11/01 11:35:07;;;;;;;10.32;1.98;;;20.30;56.40;;;;;;6176346;23;20024;-79
2022/11/01 11:37:36;;;;;;;7.32;1.70;;;20.30;56.40;;;;;;6232802;23;20020;-80
2022/11/01 11:40:11;;;;;;;12.18;1.80;;;20.30;56.50;;;;;;6204001;23;20393;-75
2022/11/01 11:42:37;;;;;;;8.38;2.05;;;20.30;56.60;;;;;;6180831;23;20027;-76
2022/11/01 11:45:22;;;;;;;9.13;1.92;;;20.30;56.60;;;;;;6231973;23;20354;-77
2022/11/01 11:47:48;;;;;;;10.70;1.90;;;20.30;56.80;;;;;;6206089;23;20024;-77
2022/11/01 11:50:20;;;;;;;8.25;1.98;;;20.40;56.80;;;;;;6204910;23;20073;-75
2022/11/01 11:52:57;;;;;;;16.20;2.30;;;20.40;56.90;;;;;;6204071;23;20064;-80
2022/11/01 11:55:35;;;;;;;9.73;1.85;;;20.40;56.90;;;;;;6205477;23;20111;-77
2022/11/01 11:58:03;;;;;;;;;;;20.50;57.00;;;;;;6205132;23;20059;-76
2022/11/01 12:00:31;;;;;;;7.43;1.63;;;20.50;57.40;;;;;;6233472;23;19919;-74
2022/11/01 12:03:02;;;;;;;9.50;2.08;;;20.50;57.00;;;;;;6230104;23;20055;-76
2022/11/01 12:05:28;;;;;;;11.15;1.95;;;20.60;57.10;;;;;;6204793;23;20326;-76
2022/11/01 12:07:56;;;;;;;10.75;1.85;;;20.60;56.90;;;;;;6205217;23;20027;-75
2022/11/01 12:10:31;;;;;;;10.20;2.10;;;20.60;56.90;;;;;;6203381;23;20340;-78
2022/11/01 12:12:57;;;;;;;9.20;1.70;;;20.70;57.10;;;;;;6180010;23;20039;-75
2022/11/01 12:15:32;;;;;;;10.32;2.05;;;20.70;57.10;;;;;;6177032;23;20024;-76
2022/11/01 12:18:27;;;;;;;10.02;1.92;;;20.70;57.20;;;;;;6204199;23;20016;-76
2022/11/01 12:20:52;;;;;;;11.27;1.88;;;20.70;57.30;;;;;;6198857;23;20095;-76
2022/11/01 12:23:38;;;;;;;6.90;2.00;;;20.70;57.30;;;;;;6206523;23;20527;-75
2022/11/01 12:26:11;;;;;;;8.45;1.50;;;20.70;57.10;;;;;;6205272;23;20449;-74
2022/11/01 12:28:41;;;;;;;7.30;1.88;;;20.70;57.10;;;;;;6204335;23;20016;-75
2022/11/01 12:31:18;;;;;;;9.20;1.77;;;20.70;57.90;;;;;;6231203;23;20047;-75
2022/11/01 12:34:19;;;;;;;9.00;2.03;;;20.70;57.10;;;;;;6202028;23;20107;-75
2022/11/01 12:37:04;;;;;;;5.85;1.63;;;20.70;57.10;;;;;;6201907;23;20095;-73
2022/11/01 12:39:49;;;;;;;9.05;1.80;;;20.70;57.00;;;;;;6204670;23;20040;-75
2022/11/01 12:42:25;;;;;;;8.55;1.73;;;20.70;57.00;;;;;;6180014;23;20024;-74
2022/11/01 12:44:56;;;;;;;11.07;2.28;;;20.70;57.50;;;;;;6201726;23;20019;-74
2022/11/01 12:47:45;;;;;;;11.30;1.73;;;20.70;57.10;;;;;;6204554;23;20027;-75
2022/11/01 12:50:23;;;;;;;9.10;1.77;;;20.70;57.00;;;;;;6205002;23;20040;-77
2022/11/01 12:52:56;;;;;;;;;;;20.70;57.10;;;;;;6204368;23;20032;-76
2022/11/01 12:55:33;;;;;;;9.20;1.30;;;20.70;57.40;;;;;;6231973;23;19916;-73
2022/11/01 12:57:59;;;;;;;7.65;1.98;;;20.70;57.40;;;;;;6201417;23;20035;-74
2022/11/01 13:00:33;;;;;;;6.22;1.40;;;20.70;57.30;;;;;;6205041;23;20024;-76
2022/11/01 13:03:35;;;;;;;6.55;1.63;;;20.70;57.30;;;;;;6202692;23;20023;-75
2022/11/01 13:06:27;;;;;;;9.85;2.00;;;20.70;57.30;;;;;;6227890;23;20020;-74
2022/11/01 13:09:15;;;;;;;7.43;1.60;;;20.70;57.40;;;;;;6181632;23;20452;-74